sensor_id;sensor_type;location;lat;lon;timestamp;temperature;humidity
56308;DHT22;42217;50.422;7.210;2023-10-19T00:00:54;9.70;99.90
56308;DHT22;42217;50.422;7.210;2023-10-19T00:03:23;9.70;99.90
56308;DHT22;42217;50.422;7.210;2023-10-19T00:05:49;9.80;99.90
56308;DHT22;42217;50.422;7.210;2023-10-19T00:08:15;9.80;99.90
56308;DHT22;42217;50.422;7.210;2023-10-19T00:10:47;9.80;99.90
56308;DHT22;42217;50.422;7.210;2023-10-19T00:13:15;9.70;99.90
56308;DHT22;42217;50.422;7.210;2023-10-19T00:15:42;9.70;99.90
56308;DHT22;42217;50.422;7.210;2023-10-19T00:18:17;9.80;99.90
56308;DHT22;42217;50.422;7.210;2023-10-19T00:20:48;9.90;99.90
56308;DHT22;42217;50.422;7.210;2023-10-19T00:23:33;9.90;99.90
56308;DHT22;42217;50.422;7.210;2023-10-19T00:26:01;9.90;99.90
56308;DHT22;42217;50.422;7.210;2023-10-19T00:28:34;10.00;99.90
56308;DHT22;42217;50.422;7.210;2023-10-19T00:31:04;10.00;99.90
56308;DHT22;42217;50.422;7.210;2023-10-19T00:33:34;10.00;99.90
56308;DHT22;42217;50.422;7.210;2023-10-19T00:36:04;10.10;99.90
56308;DHT22;42217;50.422;7.210;2023-10-19T00:38:34;10.10;99.90
56308;DHT22;42217;50.422;7.210;2023-10-19T00:41:04;10.20;99.90
56308;DHT22;42217;50.422;7.210;2023-10-19T00:43:36;10.30;99.90
56308;DHT22;42217;50.422;7.210;2023-10-19T00:46:06;10.30;99.90
56308;DHT22;42217;50.422;7.210;2023-10-19T00:48:55;10.40;99.90
56308;DHT22;42217;50.422;7.210;2023-10-19T00:51:28;10.50;99.90
56308;DHT22;42217;50.422;7.210;2023-10-19T00:53:55;10.50;99.90
56308;DHT22;42217;50.422;7.210;2023-10-19T00:56:23;10.40;99.90
56308;DHT22;42217;50.422;7.210;2023-10-19T00:58:51;10.40;99.90
56308;DHT22;42217;50.422;7.210;2023-10-19T01:01:28;10.50;99.90
56308;DHT22;42217;50.422;7.210;2023-10-19T01:03:55;10.50;99.90
56308;DHT22;42217;50.422;7.210;2023-10-19T01:06:25;10.50;99.90
56308;DHT22;42217;50.422;7.210;2023-10-19T01:08:54;10.60;99.90
56308;DHT22;42217;50.422;7.210;2023-10-19T01:11:20;10.60;99.90
56308;DHT22;42217;50.422;7.210;2023-10-19T01:13:47;10.70;99.90
56308;DHT22;42217;50.422;7.210;2023-10-19T01:16:17;10.80;99.90
56308;DHT22;42217;50.422;7.210;2023-10-19T01:18:50;10.80;99.90
56308;DHT22;42217;50.422;7.210;2023-10-19T01:21:23;11.00;99.90
56308;DHT22;42217;50.422;7.210;2023-10-19T01:23:53;11.10;99.90
56308;DHT22;42217;50.422;7.210;2023-10-19T01:26:19;11.20;99.90
56308;DHT22;42217;50.422;7.210;2023-10-19T01:28:52;11.40;99.90
56308;DHT22;42217;50.422;7.210;2023-10-19T01:31:21;11.60;99.90
56308;DHT22;42217;50.422;7.210;2023-10-19T01:33:59;11.60;99.90
56308;DHT22;42217;50.422;7.210;2023-10-19T01:36:27;11.60;99.90
56308;DHT22;42217;50.422;7.210;2023-10-19T01:38:54;12.00;99.90
56308;DHT22;42217;50.422;7.210;2023-10-19T01:41:21;12.00;99.90
56308;DHT22;42217;50.422;7.210;2023-10-19T01:43:49;12.10;99.90
56308;DHT22;42217;50.422;7.210;2023-10-19T01:46:17;12.30;99.90
56308;DHT22;42217;50.422;7.210;2023-10-19T01:48:51;12.60;99.90
56308;DHT22;42217;50.422;7.210;2023-10-19T01:51:24;12.50;99.90
56308;DHT22;42217;50.422;7.210;2023-10-19T01:53:52;12.50;99.90
56308;DHT22;42217;50.422;7.210;2023-10-19T01:56:19;12.60;99.90
56308;DHT22;42217;50.422;7.210;2023-10-19T01:58:46;12.50;99.90
56308;DHT22;42217;50.422;7.210;2023-10-19T02:01:17;12.60;99.90
56308;DHT22;42217;50.422;7.210;2023-10-19T02:03:45;12.50;99.90
56308;DHT22;42217;50.422;7.210;2023-10-19T02:06:13;12.50;99.90
56308;DHT22;42217;50.422;7.210;2023-10-19T02:08:50;12.50;99.90
56308;DHT22;42217;50.422;7.210;2023-10-19T02:11:23;12.50;99.90
56308;DHT22;42217;50.422;7.210;2023-10-19T02:13:51;12.40;99.90
56308;DHT22;42217;50.422;7.210;2023-10-19T02:16:21;12.30;99.90
56308;DHT22;42217;50.422;7.210;2023-10-19T02:18:55;12.30;99.90
56308;DHT22;42217;50.422;7.210;2023-10-19T02:21:21;12.30;99.90
56308;DHT22;42217;50.422;7.210;2023-10-19T02:23:48;12.30;99.90
56308;DHT22;42217;50.422;7.210;2023-10-19T02:26:19;12.40;99.90
56308;DHT22;42217;50.422;7.210;2023-10-19T02:28:46;12.40;99.90
56308;DHT22;42217;50.422;7.210;2023-10-19T02:31:12;12.40;99.90
56308;DHT22;42217;50.422;7.210;2023-10-19T02:33:45;12.30;99.90
56308;DHT22;42217;50.422;7.210;2023-10-19T02:36:13;12.30;99.90
56308;DHT22;42217;50.422;7.210;2023-10-19T02:38:39;12.30;99.90
56308;DHT22;42217;50.422;7.210;2023-10-19T02:41:05;12.20;99.90
56308;DHT22;42217;50.422;7.210;2023-10-19T02:43:31;12.30;99.90
56308;DHT22;42217;50.422;7.210;2023-10-19T02:45:59;12.30;99.90
56308;DHT22;42217;50.422;7.210;2023-10-19T02:48:25;12.30;99.90
56308;DHT22;42217;50.422;7.210;2023-10-19T02:50:50;12.20;99.90
56308;DHT22;42217;50.422;7.210;2023-10-19T02:53:16;12.30;99.90
56308;DHT22;42217;50.422;7.210;2023-10-19T02:55:44;12.20;99.90
56308;DHT22;42217;50.422;7.210;2023-10-19T02:58:10;12.20;99.90
56308;DHT22;42217;50.422;7.210;2023-10-19T03:00:39;12.10;99.90
56308;DHT22;42217;50.422;7.210;2023-10-19T03:03:06;12.00;99.90
56308;DHT22;42217;50.422;7.210;2023-10-19T03:05:32;11.80;99.90
56308;DHT22;42217;50.422;7.210;2023-10-19T03:08:01;11.70;99.90
56308;DHT22;42217;50.422;7.210;2023-10-19T03:10:31;11.60;99.90
56308;DHT22;42217;50.422;7.210;2023-10-19T03:13:08;11.60;99.90
56308;DHT22;42217;50.422;7.210;2023-10-19T03:15:35;11.40;99.90
56308;DHT22;42217;50.422;7.210;2023-10-19T03:18:01;11.30;99.90
56308;DHT22;42217;50.422;7.210;2023-10-19T03:20:29;11.20;99.90
56308;DHT22;42217;50.422;7.210;2023-10-19T03:22:59;11.00;99.90
56308;DHT22;42217;50.422;7.210;2023-10-19T03:25:27;10.80;99.90
56308;DHT22;42217;50.422;7.210;2023-10-19T03:28:11;10.60;99.90
56308;DHT22;42217;50.422;7.210;2023-10-19T03:30:37;10.40;99.90
56308;DHT22;42217;50.422;7.210;2023-10-19T03:33:08;10.40;99.90
56308;DHT22;42217;50.422;7.210;2023-10-19T03:35:38;10.50;99.90
56308;DHT22;42217;50.422;7.210;2023-10-19T03:38:07;10.50;99.90
56308;DHT22;42217;50.422;7.210;2023-10-19T03:40:44;10.50;99.90
56308;DHT22;42217;50.422;7.210;2023-10-19T03:43:25;10.60;99.90
56308;DHT22;42217;50.422;7.210;2023-10-19T03:45:53;10.60;99.90
56308;DHT22;42217;50.422;7.210;2023-10-19T03:48:20;10.60;99.90
56308;DHT22;42217;50.422;7.210;2023-10-19T03:50:52;10.70;99.90
56308;DHT22;42217;50.422;7.210;2023-10-19T03:53:22;10.60;99.90
56308;DHT22;42217;50.422;7.210;2023-10-19T03:55:48;10.70;99.90
56308;DHT22;42217;50.422;7.210;2023-10-19T03:58:16;10.60;99.90
56308;DHT22;42217;50.422;7.210;2023-10-19T04:00:42;10.60;99.90
56308;DHT22;42217;50.422;7.210;2023-10-19T04:03:09;10.60;99.90
56308;DHT22;42217;50.422;7.210;2023-10-19T04:05:36;10.60;99.90
56308;DHT22;42217;50.422;7.210;2023-10-19T04:08:05;10.50;99.90
56308;DHT22;42217;50.422;7.210;2023-10-19T04:10:39;10.60;99.90
56308;DHT22;42217;50.422;7.210;2023-10-19T04:13:10;10.60;99.90
56308;DHT22;42217;50.422;7.210;2023-10-19T04:15:36;10.60;99.90
56308;DHT22;42217;50.422;7.210;2023-10-19T04:18:05;10.60;99.90
56308;DHT22;42217;50.422;7.210;2023-10-19T04:20:34;10.70;99.90
56308;DHT22;42217;50.422;7.210;2023-10-19T04:23:15;10.70;99.90
56308;DHT22;42217;50.422;7.210;2023-10-19T04:25:41;10.80;99.90
56308;DHT22;42217;50.422;7.210;2023-10-19T04:28:07;10.90;99.90
56308;DHT22;42217;50.422;7.210;2023-10-19T04:30:33;10.90;99.90
56308;DHT22;42217;50.422;7.210;2023-10-19T04:32:59;10.80;99.90
56308;DHT22;42217;50.422;7.210;2023-10-19T04:35:27;10.90;99.90
56308;DHT22;42217;50.422;7.210;2023-10-19T04:37:56;11.00;99.90
56308;DHT22;42217;50.422;7.210;2023-10-19T04:40:23;10.90;99.90
56308;DHT22;42217;50.422;7.210;2023-10-19T04:42:54;10.90;99.90
56308;DHT22;42217;50.422;7.210;2023-10-19T04:45:23;11.00;99.90
56308;DHT22;42217;50.422;7.210;2023-10-19T04:47:52;11.00;99.90
56308;DHT22;42217;50.422;7.210;2023-10-19T04:50:18;11.00;99.90
56308;DHT22;42217;50.422;7.210;2023-10-19T04:52:44;11.00;99.90
56308;DHT22;42217;50.422;7.210;2023-10-19T04:55:10;11.00;99.90
56308;DHT22;42217;50.422;7.210;2023-10-19T04:57:35;10.90;99.90
56308;DHT22;42217;50.422;7.210;2023-10-19T05:00:01;10.90;99.90
56308;DHT22;42217;50.422;7.210;2023-10-19T05:02:27;11.00;99.90
56308;DHT22;42217;50.422;7.210;2023-10-19T05:04:52;11.00;99.90
56308;DHT22;42217;50.422;7.210;2023-10-19T05:07:19;11.00;99.90
56308;DHT22;42217;50.422;7.210;2023-10-19T05:09:45;11.00;99.90
56308;DHT22;42217;50.422;7.210;2023-10-19T05:12:12;11.00;99.90
56308;DHT22;42217;50.422;7.210;2023-10-19T05:14:40;11.00;99.90
56308;DHT22;42217;50.422;7.210;2023-10-19T05:17:07;11.00;99.90
56308;DHT22;42217;50.422;7.210;2023-10-19T05:19:35;11.10;99.90
56308;DHT22;42217;50.422;7.210;2023-10-19T05:22:01;11.20;99.90
56308;DHT22;42217;50.422;7.210;2023-10-19T05:24:28;11.20;99.90
56308;DHT22;42217;50.422;7.210;2023-10-19T05:26:54;11.10;99.90
56308;DHT22;42217;50.422;7.210;2023-10-19T05:29:20;11.00;99.90
56308;DHT22;42217;50.422;7.210;2023-10-19T05:31:46;11.00;99.90
56308;DHT22;42217;50.422;7.210;2023-10-19T05:34:12;11.10;99.90
56308;DHT22;42217;50.422;7.210;2023-10-19T05:36:38;11.10;99.90
56308;DHT22;42217;50.422;7.210;2023-10-19T05:39:05;11.00;99.90
56308;DHT22;42217;50.422;7.210;2023-10-19T05:41:33;10.80;99.90
56308;DHT22;42217;50.422;7.210;2023-10-19T05:43:59;10.80;99.90
56308;DHT22;42217;50.422;7.210;2023-10-19T05:46:25;10.90;99.90
56308;DHT22;42217;50.422;7.210;2023-10-19T05:48:51;10.80;99.90
56308;DHT22;42217;50.422;7.210;2023-10-19T05:51:19;11.00;99.90
56308;DHT22;42217;50.422;7.210;2023-10-19T05:53:45;11.20;99.90
56308;DHT22;42217;50.422;7.210;2023-10-19T05:56:11;11.20;99.90
56308;DHT22;42217;50.422;7.210;2023-10-19T05:58:36;11.20;99.90
56308;DHT22;42217;50.422;7.210;2023-10-19T06:01:03;11.10;99.90
56308;DHT22;42217;50.422;7.210;2023-10-19T06:03:28;11.10;99.90
56308;DHT22;42217;50.422;7.210;2023-10-19T06:05:56;11.20;99.90
56308;DHT22;42217;50.422;7.210;2023-10-19T06:08:22;11.30;99.90
56308;DHT22;42217;50.422;7.210;2023-10-19T06:10:54;11.30;99.90
56308;DHT22;42217;50.422;7.210;2023-10-19T06:13:20;11.40;99.90
56308;DHT22;42217;50.422;7.210;2023-10-19T06:15:48;11.50;99.90
56308;DHT22;42217;50.422;7.210;2023-10-19T06:18:14;11.30;99.90
56308;DHT22;42217;50.422;7.210;2023-10-19T06:20:44;11.30;99.90
56308;DHT22;42217;50.422;7.210;2023-10-19T06:23:10;11.40;99.90
56308;DHT22;42217;50.422;7.210;2023-10-19T06:25:37;11.50;99.90
56308;DHT22;42217;50.422;7.210;2023-10-19T06:28:04;11.60;99.90
56308;DHT22;42217;50.422;7.210;2023-10-19T06:30:31;11.60;99.90
56308;DHT22;42217;50.422;7.210;2023-10-19T06:32:58;11.70;99.90
56308;DHT22;42217;50.422;7.210;2023-10-19T06:35:29;11.80;99.90
56308;DHT22;42217;50.422;7.210;2023-10-19T06:37:57;11.80;99.90
56308;DHT22;42217;50.422;7.210;2023-10-19T06:40:24;11.80;99.90
56308;DHT22;42217;50.422;7.210;2023-10-19T06:42:52;11.80;99.90
56308;DHT22;42217;50.422;7.210;2023-10-19T06:45:21;11.90;99.90
56308;DHT22;42217;50.422;7.210;2023-10-19T06:47:48;12.00;99.90
56308;DHT22;42217;50.422;7.210;2023-10-19T06:50:15;12.20;99.90
56308;DHT22;42217;50.422;7.210;2023-10-19T06:52:43;12.10;99.90
56308;DHT22;42217;50.422;7.210;2023-10-19T06:55:10;12.10;99.90
56308;DHT22;42217;50.422;7.210;2023-10-19T06:57:42;12.10;99.90
56308;DHT22;42217;50.422;7.210;2023-10-19T07:00:12;12.20;99.90
56308;DHT22;42217;50.422;7.210;2023-10-19T07:02:42;12.20;99.90
56308;DHT22;42217;50.422;7.210;2023-10-19T07:05:12;12.30;99.90
56308;DHT22;42217;50.422;7.210;2023-10-19T07:07:42;12.30;99.90
56308;DHT22;42217;50.422;7.210;2023-10-19T07:10:09;12.30;99.90
56308;DHT22;42217;50.422;7.210;2023-10-19T07:12:37;12.30;99.90
56308;DHT22;42217;50.422;7.210;2023-10-19T07:15:07;12.40;99.90
56308;DHT22;42217;50.422;7.210;2023-10-19T07:17:36;12.30;99.90
56308;DHT22;42217;50.422;7.210;2023-10-19T07:20:07;12.30;99.90
56308;DHT22;42217;50.422;7.210;2023-10-19T07:22:35;12.20;99.90
56308;DHT22;42217;50.422;7.210;2023-10-19T07:25:07;12.20;99.90
56308;DHT22;42217;50.422;7.210;2023-10-19T07:27:34;12.10;99.90
56308;DHT22;42217;50.422;7.210;2023-10-19T07:30:01;12.20;99.90
56308;DHT22;42217;50.422;7.210;2023-10-19T07:32:30;12.40;99.90
56308;DHT22;42217;50.422;7.210;2023-10-19T07:34:57;12.40;99.90
56308;DHT22;42217;50.422;7.210;2023-10-19T07:37:22;12.60;99.90
56308;DHT22;42217;50.422;7.210;2023-10-19T07:39:48;12.80;99.90
56308;DHT22;42217;50.422;7.210;2023-10-19T07:42:14;13.10;99.90
56308;DHT22;42217;50.422;7.210;2023-10-19T07:44:40;13.40;99.90
56308;DHT22;42217;50.422;7.210;2023-10-19T07:47:06;13.50;99.90
56308;DHT22;42217;50.422;7.210;2023-10-19T07:49:35;13.60;99.90
56308;DHT22;42217;50.422;7.210;2023-10-19T07:52:04;13.80;99.90
56308;DHT22;42217;50.422;7.210;2023-10-19T07:54:35;13.90;99.90
56308;DHT22;42217;50.422;7.210;2023-10-19T07:57:01;14.00;99.90
56308;DHT22;42217;50.422;7.210;2023-10-19T07:59:38;14.20;99.90
56308;DHT22;42217;50.422;7.210;2023-10-19T08:02:03;14.20;99.90
56308;DHT22;42217;50.422;7.210;2023-10-19T08:04:30;14.00;99.90
56308;DHT22;42217;50.422;7.210;2023-10-19T08:06:57;14.00;99.90
56308;DHT22;42217;50.422;7.210;2023-10-19T08:09:23;14.10;99.90
56308;DHT22;42217;50.422;7.210;2023-10-19T08:11:50;14.40;99.90
56308;DHT22;42217;50.422;7.210;2023-10-19T08:14:23;14.60;99.90
56308;DHT22;42217;50.422;7.210;2023-10-19T08:16:53;14.70;99.90
56308;DHT22;42217;50.422;7.210;2023-10-19T08:19:19;14.80;99.90
56308;DHT22;42217;50.422;7.210;2023-10-19T08:21:45;15.10;99.90
56308;DHT22;42217;50.422;7.210;2023-10-19T08:24:11;15.30;99.90
56308;DHT22;42217;50.422;7.210;2023-10-19T08:26:46;15.30;99.90
56308;DHT22;42217;50.422;7.210;2023-10-19T08:29:12;15.30;99.90
56308;DHT22;42217;50.422;7.210;2023-10-19T08:31:42;15.30;99.90
56308;DHT22;42217;50.422;7.210;2023-10-19T08:34:08;15.30;99.90
56308;DHT22;42217;50.422;7.210;2023-10-19T08:36:37;15.30;99.90
56308;DHT22;42217;50.422;7.210;2023-10-19T08:39:07;15.30;99.90
56308;DHT22;42217;50.422;7.210;2023-10-19T08:41:34;15.20;99.90
56308;DHT22;42217;50.422;7.210;2023-10-19T08:44:05;15.40;99.90
56308;DHT22;42217;50.422;7.210;2023-10-19T08:46:44;15.80;99.90
56308;DHT22;42217;50.422;7.210;2023-10-19T08:49:12;15.90;99.90
56308;DHT22;42217;50.422;7.210;2023-10-19T08:51:38;16.10;99.90
56308;DHT22;42217;50.422;7.210;2023-10-19T08:54:07;16.20;99.90
56308;DHT22;42217;50.422;7.210;2023-10-19T08:56:36;16.30;99.90
56308;DHT22;42217;50.422;7.210;2023-10-19T08:59:02;16.40;99.90
56308;DHT22;42217;50.422;7.210;2023-10-19T09:01:28;16.40;99.90
56308;DHT22;42217;50.422;7.210;2023-10-19T09:04:01;16.40;99.90
56308;DHT22;42217;50.422;7.210;2023-10-19T09:06:27;16.40;99.90
56308;DHT22;42217;50.422;7.210;2023-10-19T09:08:56;16.30;99.90
56308;DHT22;42217;50.422;7.210;2023-10-19T09:11:23;16.10;99.90
56308;DHT22;42217;50.422;7.210;2023-10-19T09:13:50;16.10;99.90
56308;DHT22;42217;50.422;7.210;2023-10-19T09:16:18;16.10;99.90
56308;DHT22;42217;50.422;7.210;2023-10-19T09:18:49;16.10;99.90
56308;DHT22;42217;50.422;7.210;2023-10-19T09:21:17;16.10;99.90
56308;DHT22;42217;50.422;7.210;2023-10-19T09:23:54;16.00;99.90
56308;DHT22;42217;50.422;7.210;2023-10-19T09:26:21;16.00;99.90
56308;DHT22;42217;50.422;7.210;2023-10-19T09:28:49;16.10;99.90
56308;DHT22;42217;50.422;7.210;2023-10-19T09:31:15;16.20;99.90
56308;DHT22;42217;50.422;7.210;2023-10-19T09:33:43;16.30;99.90
56308;DHT22;42217;50.422;7.210;2023-10-19T09:36:12;16.50;99.90
56308;DHT22;42217;50.422;7.210;2023-10-19T09:38:51;16.60;99.90
56308;DHT22;42217;50.422;7.210;2023-10-19T09:41:21;16.70;99.90
56308;DHT22;42217;50.422;7.210;2023-10-19T09:43:50;16.80;99.90
56308;DHT22;42217;50.422;7.210;2023-10-19T09:46:26;16.90;99.90
56308;DHT22;42217;50.422;7.210;2023-10-19T09:48:52;16.90;99.90
56308;DHT22;42217;50.422;7.210;2023-10-19T09:51:18;17.00;99.90
56308;DHT22;42217;50.422;7.210;2023-10-19T09:53:48;17.10;99.90
56308;DHT22;42217;50.422;7.210;2023-10-19T09:56:21;17.30;99.90
56308;DHT22;42217;50.422;7.210;2023-10-19T09:58:51;17.50;99.90
56308;DHT22;42217;50.422;7.210;2023-10-19T10:01:18;17.60;99.90
56308;DHT22;42217;50.422;7.210;2023-10-19T10:03:50;17.40;99.90
56308;DHT22;42217;50.422;7.210;2023-10-19T10:09:20;17.30;99.90
56308;DHT22;42217;50.422;7.210;2023-10-19T10:11:49;17.50;99.90
56308;DHT22;42217;50.422;7.210;2023-10-19T10:14:23;17.70;99.90
56308;DHT22;42217;50.422;7.210;2023-10-19T10:17:04;17.60;99.90
56308;DHT22;42217;50.422;7.210;2023-10-19T10:19:31;17.50;99.90
56308;DHT22;42217;50.422;7.210;2023-10-19T10:22:10;17.30;99.90
56308;DHT22;42217;50.422;7.210;2023-10-19T10:24:41;17.10;99.90
56308;DHT22;42217;50.422;7.210;2023-10-19T10:27:07;17.10;99.90
56308;DHT22;42217;50.422;7.210;2023-10-19T10:29:33;17.10;99.90
56308;DHT22;42217;50.422;7.210;2023-10-19T10:31:59;17.20;99.90
56308;DHT22;42217;50.422;7.210;2023-10-19T10:37:07;17.20;99.90
56308;DHT22;42217;50.422;7.210;2023-10-19T10:39:35;17.20;99.90
56308;DHT22;42217;50.422;7.210;2023-10-19T10:42:05;17.30;99.90
56308;DHT22;42217;50.422;7.210;2023-10-19T10:44:47;17.40;99.90
56308;DHT22;42217;50.422;7.210;2023-10-19T10:47:21;17.30;99.90
56308;DHT22;42217;50.422;7.210;2023-10-19T10:54:57;17.10;99.90
56308;DHT22;42217;50.422;7.210;2023-10-19T10:57:23;17.00;99.90
56308;DHT22;42217;50.422;7.210;2023-10-19T11:00:09;16.80;99.90
56308;DHT22;42217;50.422;7.210;2023-10-19T11:02:37;16.50;99.90
56308;DHT22;42217;50.422;7.210;2023-10-19T11:05:08;16.50;99.90
56308;DHT22;42217;50.422;7.210;2023-10-19T11:07:40;16.40;99.90
56308;DHT22;42217;50.422;7.210;2023-10-19T11:10:06;16.40;99.90
56308;DHT22;42217;50.422;7.210;2023-10-19T11:12:33;16.40;99.90
56308;DHT22;42217;50.422;7.210;2023-10-19T11:14:59;16.40;99.90
56308;DHT22;42217;50.422;7.210;2023-10-19T11:17:26;16.50;99.90
56308;DHT22;42217;50.422;7.210;2023-10-19T11:19:56;16.60;99.90
56308;DHT22;42217;50.422;7.210;2023-10-19T11:22:26;16.60;99.90
56308;DHT22;42217;50.422;7.210;2023-10-19T11:24:55;16.80;99.90
56308;DHT22;42217;50.422;7.210;2023-10-19T11:27:41;16.90;99.90
56308;DHT22;42217;50.422;7.210;2023-10-19T11:30:07;17.00;99.90
56308;DHT22;42217;50.422;7.210;2023-10-19T11:32:37;17.10;99.90
56308;DHT22;42217;50.422;7.210;2023-10-19T11:35:07;17.20;99.90
56308;DHT22;42217;50.422;7.210;2023-10-19T11:37:49;17.30;99.90
56308;DHT22;42217;50.422;7.210;2023-10-19T11:40:15;17.70;99.90
56308;DHT22;42217;50.422;7.210;2023-10-19T11:42:41;18.00;99.90
56308;DHT22;42217;50.422;7.210;2023-10-19T11:45:08;18.40;99.90
56308;DHT22;42217;50.422;7.210;2023-10-19T11:47:33;18.50;99.90
56308;DHT22;42217;50.422;7.210;2023-10-19T11:50:00;18.60;99.90
56308;DHT22;42217;50.422;7.210;2023-10-19T11:52:25;18.70;99.90
56308;DHT22;42217;50.422;7.210;2023-10-19T11:54:53;18.40;99.90
56308;DHT22;42217;50.422;7.210;2023-10-19T11:57:19;18.10;99.90
56308;DHT22;42217;50.422;7.210;2023-10-19T11:59:45;17.90;99.90
56308;DHT22;42217;50.422;7.210;2023-10-19T12:02:10;17.70;99.90
56308;DHT22;42217;50.422;7.210;2023-10-19T12:04:37;17.60;99.90
56308;DHT22;42217;50.422;7.210;2023-10-19T12:07:02;17.60;99.90
56308;DHT22;42217;50.422;7.210;2023-10-19T12:09:29;17.70;99.90
56308;DHT22;42217;50.422;7.210;2023-10-19T12:11:56;17.70;99.90
56308;DHT22;42217;50.422;7.210;2023-10-19T12:14:22;17.60;99.90
56308;DHT22;42217;50.422;7.210;2023-10-19T12:16:48;17.60;99.90
56308;DHT22;42217;50.422;7.210;2023-10-19T12:19:14;17.50;99.90
56308;DHT22;42217;50.422;7.210;2023-10-19T12:21:40;17.40;99.90
56308;DHT22;42217;50.422;7.210;2023-10-19T12:24:10;17.30;99.90
56308;DHT22;42217;50.422;7.210;2023-10-19T12:26:35;17.20;99.90
56308;DHT22;42217;50.422;7.210;2023-10-19T12:29:01;17.30;99.90
56308;DHT22;42217;50.422;7.210;2023-10-19T12:31:29;17.20;99.90
56308;DHT22;42217;50.422;7.210;2023-10-19T12:33:55;17.30;99.90
56308;DHT22;42217;50.422;7.210;2023-10-19T12:36:21;17.20;99.90
56308;DHT22;42217;50.422;7.210;2023-10-19T12:38:57;17.10;99.90
56308;DHT22;42217;50.422;7.210;2023-10-19T12:41:23;17.10;99.90
56308;DHT22;42217;50.422;7.210;2023-10-19T12:43:50;17.00;99.90
56308;DHT22;42217;50.422;7.210;2023-10-19T12:46:23;17.00;99.90
56308;DHT22;42217;50.422;7.210;2023-10-19T12:48:51;17.00;99.90
56308;DHT22;42217;50.422;7.210;2023-10-19T12:51:16;17.20;99.90
56308;DHT22;42217;50.422;7.210;2023-10-19T12:53:48;17.00;99.90
56308;DHT22;42217;50.422;7.210;2023-10-19T12:56:17;17.10;99.90
56308;DHT22;42217;50.422;7.210;2023-10-19T12:58:43;17.00;99.90
56308;DHT22;42217;50.422;7.210;2023-10-19T13:01:09;17.00;99.90
56308;DHT22;42217;50.422;7.210;2023-10-19T13:03:42;17.00;99.90
56308;DHT22;42217;50.422;7.210;2023-10-19T13:06:11;17.00;99.90
56308;DHT22;42217;50.422;7.210;2023-10-19T13:08:37;17.00;99.90
56308;DHT22;42217;50.422;7.210;2023-10-19T13:11:09;17.00;99.90
56308;DHT22;42217;50.422;7.210;2023-10-19T13:13:44;16.90;99.90
56308;DHT22;42217;50.422;7.210;2023-10-19T13:16:09;16.80;99.90
56308;DHT22;42217;50.422;7.210;2023-10-19T13:18:36;16.80;99.90
56308;DHT22;42217;50.422;7.210;2023-10-19T13:21:02;16.70;99.90
56308;DHT22;42217;50.422;7.210;2023-10-19T13:23:31;16.60;99.90
56308;DHT22;42217;50.422;7.210;2023-10-19T13:25:59;16.60;99.90
56308;DHT22;42217;50.422;7.210;2023-10-19T13:28:43;16.40;99.90
56308;DHT22;42217;50.422;7.210;2023-10-19T13:31:09;16.30;99.90
56308;DHT22;42217;50.422;7.210;2023-10-19T13:33:35;16.00;99.90
56308;DHT22;42217;50.422;7.210;2023-10-19T13:36:01;15.80;99.90
56308;DHT22;42217;50.422;7.210;2023-10-19T13:38:28;15.70;99.90
56308;DHT22;42217;50.422;7.210;2023-10-19T13:40:54;15.70;99.90
56308;DHT22;42217;50.422;7.210;2023-10-19T13:43:19;15.70;99.90
56308;DHT22;42217;50.422;7.210;2023-10-19T13:45:47;15.70;99.90
56308;DHT22;42217;50.422;7.210;2023-10-19T13:48:14;15.60;99.90
56308;DHT22;42217;50.422;7.210;2023-10-19T13:50:45;15.50;99.90
56308;DHT22;42217;50.422;7.210;2023-10-19T13:53:15;15.50;99.90
56308;DHT22;42217;50.422;7.210;2023-10-19T13:55:41;15.40;99.90
56308;DHT22;42217;50.422;7.210;2023-10-19T13:58:07;15.40;99.90
56308;DHT22;42217;50.422;7.210;2023-10-19T14:00:33;15.30;99.90
56308;DHT22;42217;50.422;7.210;2023-10-19T14:03:02;15.30;99.90
56308;DHT22;42217;50.422;7.210;2023-10-19T14:05:35;15.20;99.90
56308;DHT22;42217;50.422;7.210;2023-10-19T14:08:02;15.20;99.90
56308;DHT22;42217;50.422;7.210;2023-10-19T14:10:29;15.20;99.90
56308;DHT22;42217;50.422;7.210;2023-10-19T14:12:56;15.30;99.90
56308;DHT22;42217;50.422;7.210;2023-10-19T14:15:22;15.40;99.90
56308;DHT22;42217;50.422;7.210;2023-10-19T14:17:48;15.50;99.90
56308;DHT22;42217;50.422;7.210;2023-10-19T14:20:16;15.50;99.90
56308;DHT22;42217;50.422;7.210;2023-10-19T14:22:44;15.60;99.90
56308;DHT22;42217;50.422;7.210;2023-10-19T14:25:11;15.50;99.90
56308;DHT22;42217;50.422;7.210;2023-10-19T14:27:44;15.50;99.90
56308;DHT22;42217;50.422;7.210;2023-10-19T14:30:10;15.50;99.90
56308;DHT22;42217;50.422;7.210;2023-10-19T14:32:43;15.40;99.90
56308;DHT22;42217;50.422;7.210;2023-10-19T14:35:12;15.40;99.90
56308;DHT22;42217;50.422;7.210;2023-10-19T14:37:40;15.40;99.90
56308;DHT22;42217;50.422;7.210;2023-10-19T14:40:10;15.60;99.90
56308;DHT22;42217;50.422;7.210;2023-10-19T14:42:38;15.70;99.90
56308;DHT22;42217;50.422;7.210;2023-10-19T14:45:16;15.70;99.90
56308;DHT22;42217;50.422;7.210;2023-10-19T14:47:48;15.90;99.90
56308;DHT22;42217;50.422;7.210;2023-10-19T14:50:15;16.00;99.90
56308;DHT22;42217;50.422;7.210;2023-10-19T14:52:44;16.30;99.90
56308;DHT22;42217;50.422;7.210;2023-10-19T14:55:10;16.40;99.90
56308;DHT22;42217;50.422;7.210;2023-10-19T14:57:38;16.50;99.90
56308;DHT22;42217;50.422;7.210;2023-10-19T15:00:09;16.40;99.90
56308;DHT22;42217;50.422;7.210;2023-10-19T15:02:45;16.20;99.90
56308;DHT22;42217;50.422;7.210;2023-10-19T15:05:14;16.30;99.90
56308;DHT22;42217;50.422;7.210;2023-10-19T15:07:42;16.40;99.90
56308;DHT22;42217;50.422;7.210;2023-10-19T15:10:10;16.50;99.90
56308;DHT22;42217;50.422;7.210;2023-10-19T15:12:38;16.80;99.90
56308;DHT22;42217;50.422;7.210;2023-10-19T15:15:05;16.90;99.90
56308;DHT22;42217;50.422;7.210;2023-10-19T15:17:31;17.10;99.90
56308;DHT22;42217;50.422;7.210;2023-10-19T15:19:56;17.20;99.90
56308;DHT22;42217;50.422;7.210;2023-10-19T15:22:24;17.00;99.90
56308;DHT22;42217;50.422;7.210;2023-10-19T15:24:52;16.80;99.90
56308;DHT22;42217;50.422;7.210;2023-10-19T15:27:18;16.40;99.90
56308;DHT22;42217;50.422;7.210;2023-10-19T15:29:44;16.30;99.90
56308;DHT22;42217;50.422;7.210;2023-10-19T15:32:10;16.20;99.90
56308;DHT22;42217;50.422;7.210;2023-10-19T15:34:36;16.10;99.90
56308;DHT22;42217;50.422;7.210;2023-10-19T15:37:02;16.00;99.90
56308;DHT22;42217;50.422;7.210;2023-10-19T15:39:27;15.90;99.90
56308;DHT22;42217;50.422;7.210;2023-10-19T15:41:53;15.80;99.90
56308;DHT22;42217;50.422;7.210;2023-10-19T15:44:19;15.70;99.90
56308;DHT22;42217;50.422;7.210;2023-10-19T15:46:45;15.60;99.90
56308;DHT22;42217;50.422;7.210;2023-10-19T15:49:14;15.50;99.90
56308;DHT22;42217;50.422;7.210;2023-10-19T15:51:41;15.40;99.90